Time;durP1;ratioP1;P1;durP2;ratioP2;P2;SDS_P1;SDS_P2;PMS_P1;PMS_P2;Temp;Humidity;BMP_temperature;BMP_pressure;BME280_temperature;BME280_humidity;BME280_pressure;Samples;Min_cycle;Max_cycle;Signal;HPM_P1;HPM_P2
2024/02/20 00:03:26;;;;;;;2.53;0.35;;;;;;;10.42;65.26;101274.47;10305106;28;20129;-61
2024/02/20 00:08:28;;;;;;;2.40;0.73;;;;;;;10.44;65.11;101280.53;10312376;28;20062;-62
2024/02/20 00:13:30;;;;;;;2.08;0.52;;;;;;;10.48;64.79;101276.56;10290247;28;20673;-57
2024/02/20 00:18:33;;;;;;;1.85;0.40;;;;;;;10.52;64.48;101282.47;10296980;28;20051;-58
2024/02/20 00:23:36;;;;;;;2.30;0.50;;;;;;;10.52;64.63;101280.66;10297284;28;20054;-59
2024/02/20 00:28:41;;;;;;;2.88;0.50;;;;;;;10.64;64.16;101296.53;10302119;28;20130;-58
2024/02/20 00:33:42;;;;;;;2.00;0.55;;;;;;;10.71;64.33;101303.00;10304306;28;20046;-59
2024/02/20 00:38:44;;;;;;;12.98;1.20;;;;;;;10.72;63.90;101288.56;10299202;28;20058;-58
2024/02/20 00:43:45;;;;;;;4.65;1.35;;;;;;;10.71;63.99;101298.47;10304015;28;20082;-58
2024/02/20 00:48:48;;;;;;;7.32;2.22;;;;;;;10.83;63.82;101301.78;10299968;28;20050;-59
2024/02/20 00:53:51;;;;;;;6.40;1.55;;;;;;;10.79;63.58;101300.41;10303334;28;20047;-58
2024/02/20 00:58:52;;;;;;;5.63;1.05;;;;;;;10.86;63.87;101296.09;10299321;28;20086;-58
2024/02/20 01:03:54;;;;;;;7.55;1.40;;;;;;;10.83;63.53;101300.94;10302620;28;20061;-59
2024/02/20 01:08:55;;;;;;;8.68;1.23;;;;;;;10.62;63.94;101306.59;10296890;28;20445;-58
2024/02/20 01:13:57;;;;;;;15.57;1.90;;;;;;;10.58;64.15;101314.13;10299398;28;20050;-59
2024/02/20 01:18:58;;;;;;;6.53;1.55;;;;;;;10.45;64.10;101317.19;10297430;28;20457;-58
2024/02/20 01:24:00;;;;;;;10.77;1.83;;;;;;;10.41;64.31;101318.50;10300100;28;20075;-60
2024/02/20 01:29:02;;;;;;;9.10;1.20;;;;;;;10.38;64.19;101320.63;10285978;28;20069;-61
2024/02/20 01:34:04;;;;;;;9.23;1.88;;;;;;;10.29;64.65;101319.69;10304330;28;20508;-61
2024/02/20 01:39:07;;;;;;;10.55;1.60;;;;;;;10.19;64.91;101311.66;10294462;28;20054;-62
2024/02/20 01:44:09;;;;;;;12.35;1.85;;;;;;;10.23;64.33;101310.38;10301743;28;20054;-61
2024/02/20 01:49:11;;;;;;;8.23;1.30;;;;;;;10.13;64.57;101318.47;10301389;28;20062;-61
2024/02/20 01:54:13;;;;;;;8.88;1.50;;;;;;;10.11;64.65;101328.53;10299347;28;20513;-63
2024/02/20 01:59:15;;;;;;;9.82;1.85;;;;;;;10.15;64.74;101328.22;10307362;28;20587;-61
2024/02/20 02:04:16;;;;;;;12.65;2.33;;;;;;;10.26;64.04;101336.94;10292898;28;20050;-62
2024/02/20 02:09:18;;;;;;;11.50;2.25;;;;;;;10.26;64.38;101333.41;10299002;28;20055;-61
2024/02/20 02:14:20;;;;;;;11.85;1.83;;;;;;;10.31;64.06;101332.00;10292990;28;20061;-62
2024/02/20 02:19:22;;;;;;;13.18;2.45;;;;;;;10.38;64.25;101334.06;10301503;28;20052;-60
2024/02/20 02:24:23;;;;;;;13.23;2.22;;;;;;;10.37;64.35;101345.81;10301825;28;20050;-61
2024/02/20 02:29:25;;;;;;;12.15;2.55;;;;;;;10.30;64.40;101341.03;10311481;28;20081;-61
2024/02/20 02:34:30;;;;;;;17.42;3.53;;;;;;;10.26;64.48;101345.00;10305499;28;20109;-60
2024/02/20 02:39:32;;;;;;;15.77;1.77;;;;;;;10.43;64.16;101351.44;10296731;28;20046;-60
2024/02/20 02:44:33;;;;;;;9.88;3.22;;;;;;;10.37;64.39;101364.63;10305712;28;20337;-60
2024/02/20 02:49:35;;;;;;;9.25;2.05;;;;;;;10.38;63.91;101371.69;10303992;28;20050;-60
2024/02/20 02:54:36;;;;;;;11.30;2.28;;;;;;;10.43;63.75;101366.75;10311409;28;20150;-60
2024/02/20 02:59:39;;;;;;;20.27;2.55;;;;;;;10.42;63.69;101368.56;10293977;28;20398;-60
2024/02/20 03:04:40;;;;;;;10.50;2.30;;;;;;;10.42;63.64;101373.94;10314204;28;20057;-60
2024/02/20 03:09:42;;;;;;;13.02;2.22;;;;;;;10.48;63.40;101383.25;10303489;28;20057;-59
2024/02/20 03:14:43;;;;;;;13.55;1.80;;;;;;;10.55;63.19;101381.66;10310881;28;20389;-60
2024/02/20 03:19:45;;;;;;;15.90;1.98;;;;;;;10.52;63.05;101388.19;10297965;28;20050;-60
2024/02/20 03:24:47;;;;;;;9.23;3.08;;;;;;;10.56;63.19;101395.94;10311332;28;20070;-60
2024/02/20 03:29:48;;;;;;;10.32;1.80;;;;;;;10.49;62.99;101407.28;10302585;28;20576;-60
2024/02/20 03:34:50;;;;;;;9.73;2.40;;;;;;;10.46;63.04;101399.50;10299692;28;20133;-59
2024/02/20 03:39:51;;;;;;;12.90;2.30;;;;;;;10.26;63.33;101409.47;10303981;28;20506;-59
2024/02/20 03:44:53;;;;;;;11.98;1.77;;;;;;;10.06;63.60;101427.50;10299849;28;20042;-58
2024/02/20 03:49:54;;;;;;;14.07;3.17;;;;;;;9.95;63.73;101430.38;10305936;28;20051;-58
2024/02/20 03:54:56;;;;;;;10.63;2.45;;;;;;;9.76;64.05;101436.63;10300552;28;20055;-59
2024/02/20 03:59:58;;;;;;;14.82;3.13;;;;;;;9.58;64.09;101436.53;10301340;28;20062;-58
2024/02/20 04:05:01;;;;;;;13.95;3.08;;;;;;;9.54;64.27;101427.06;10310045;28;20059;-59
2024/02/20 04:10:03;;;;;;;16.80;3.00;;;;;;;9.48;64.31;101441.06;10306622;28;20409;-59
2024/02/20 04:15:07;;;;;;;13.35;3.30;;;;;;;9.48;63.92;101438.38;10287251;28;20073;-58
2024/02/20 04:20:11;;;;;;;12.48;2.42;;;;;;;9.45;63.64;101457.44;10305441;28;20657;-58
2024/02/20 04:25:13;;;;;;;11.88;2.50;;;;;;;9.40;63.81;101467.72;10303006;28;20120;-58
2024/02/20 04:30:14;;;;;;;12.25;2.17;;;;;;;9.30;63.90;101479.31;10301695;28;20062;-57
2024/02/20 04:35:16;;;;;;;9.38;2.47;;;;;;;9.24;64.04;101485.25;10303237;28;20053;-58
2024/02/20 04:40:18;;;;;;;14.73;3.25;;;;;;;9.22;64.06;101480.97;10301149;28;20070;-58
2024/02/20 04:45:20;;;;;;;8.63;2.78;;;;;;;9.27;63.88;101489.47;10284985;28;20050;-58
2024/02/20 04:50:22;;;;;;;9.13;3.15;;;;;;;9.31;63.56;101491.72;10302247;28;20050;-58
2024/02/20 04:55:23;;;;;;;10.38;2.65;;;;;;;9.36;63.49;101491.34;10298974;28;20111;-58
2024/02/20 05:00:24;;;;;;;13.50;3.60;;;;;;;9.27;63.49;101503.72;10302078;28;20181;-58
2024/02/20 05:05:26;;;;;;;16.17;2.55;;;;;;;9.26;63.35;101509.22;10301594;28;20065;-58
2024/02/20 05:10:28;;;;;;;13.52;2.38;;;;;;;9.17;63.70;101526.19;10300462;28;20101;-57
2024/02/20 05:15:29;;;;;;;16.92;3.00;;;;;;;9.11;63.82;101527.56;10281028;28;20050;-59
2024/02/20 05:20:32;;;;;;;8.77;2.47;;;;;;;9.12;63.83;101538.16;10286706;28;20055;-58
2024/02/20 05:25:33;;;;;;;27.17;3.13;;;;;;;9.16;63.89;101521.78;10298421;28;20141;-59
2024/02/20 05:30:37;;;;;;;15.90;3.78;;;;;;;9.25;63.63;101529.84;10303498;28;20561;-57
2024/02/20 05:35:41;;;;;;;13.20;2.72;;;;;;;9.29;63.78;101531.28;10308214;28;20490;-59
2024/02/20 05:40:43;;;;;;;18.40;3.33;;;;;;;9.34;63.73;101528.19;10295305;28;20062;-57
2024/02/20 05:45:44;;;;;;;15.75;3.03;;;;;;;9.39;63.77;101528.59;10302335;28;20058;-58
2024/02/20 05:50:46;;;;;;;11.85;2.35;;;;;;;9.42;63.65;101531.03;10298942;28;20167;-58
2024/02/20 05:55:47;;;;;;;14.88;2.88;;;;;;;9.45;63.71;101533.41;10298559;28;20113;-58
2024/02/20 06:00:49;;;;;;;18.88;2.67;;;;;;;9.55;63.23;101528.06;10308289;28;20050;-57
2024/02/20 06:05:50;;;;;;;14.25;2.40;;;;;;;9.65;63.29;101536.13;10292979;28;20049;-60
2024/02/20 06:10:52;;;;;;;9.77;2.28;;;;;;;9.61;63.67;101535.53;10309342;28;20050;-59
2024/02/20 06:15:54;;;;;;;14.90;1.70;;;;;;;9.68;63.46;101543.91;10305672;28;20055;-59
2024/02/20 06:20:55;;;;;;;15.85;2.28;;;;;;;9.81;63.49;101543.59;10311351;28;20085;-59
2024/02/20 06:25:56;;;;;;;12.30;1.52;;;;;;;9.80;63.30;101553.50;10307651;28;20108;-59
2024/02/20 06:31:03;;;;;;;14.68;1.73;;;;;;;10.01;62.64;101556.06;10292889;28;20097;-67
2024/02/20 06:36:04;;;;;;;13.50;2.03;;;;;;;10.13;62.59;101554.91;10309022;28;20633;-67
2024/02/20 06:41:06;;;;;;;13.50;2.05;;;;;;;10.18;62.48;101559.84;10303725;28;20050;-67
2024/02/20 06:46:08;;;;;;;10.23;2.22;;;;;;;10.11;62.31;101559.59;10306808;28;20071;-67
2024/02/20 06:51:10;;;;;;;12.15;2.00;;;;;;;10.18;62.26;101564.38;10311638;28;20136;-64
2024/02/20 06:56:12;;;;;;;13.85;1.90;;;;;;;10.04;62.44;101561.13;10307973;28;20050;-63
2024/02/20 07:01:14;;;;;;;17.65;2.63;;;;;;;10.06;62.33;101572.59;10299318;28;20105;-66
2024/02/20 07:06:16;;;;;;;16.65;2.22;;;;;;;10.04;62.53;101573.72;10304966;28;20090;-66
2024/02/20 07:11:18;;;;;;;7.25;2.80;;;;;;;10.01;62.91;101579.38;10307128;28;20062;-66
2024/02/20 07:16:19;;;;;;;19.40;3.17;;;;;;;9.96;62.72;101573.59;10312316;28;20124;-67
2024/02/20 07:21:21;;;;;;;17.45;2.78;;;;;;;9.94;63.12;101584.47;10306530;28;20054;-66
2024/02/20 07:26:27;;;;;;;14.65;3.42;;;;;;;9.93;63.25;101590.81;10306737;28;20050;-67
2024/02/20 07:31:28;;;;;;;13.18;3.60;;;;;;;9.91;63.58;101590.09;10284004;28;20556;-65
2024/02/20 07:36:32;;;;;;;19.30;4.20;;;;;;;9.95;64.07;101586.16;10303396;28;20057;-67
2024/02/20 07:41:34;;;;;;;14.82;3.25;;;;;;;9.95;63.97;101582.63;10308080;28;20050;-67
2024/02/20 07:46:37;;;;;;;19.95;4.40;;;;;;;10.01;64.48;101593.66;10287791;28;20070;-66
2024/02/20 07:51:39;;;;;;;12.05;3.95;;;;;;;10.04;64.31;101593.38;10304547;28;20050;-69
2024/02/20 07:56:40;;;;;;;11.00;3.53;;;;;;;10.24;63.85;101596.88;10302251;28;20149;-69
2024/02/20 08:01:49;;;;;;;16.58;3.58;;;;;;;10.30;64.11;101592.81;10285813;28;20058;-66
2024/02/20 08:06:54;;;;;;;16.10;3.85;;;;;;;10.44;63.81;101597.75;10305300;28;20146;-69
2024/02/20 08:11:55;;;;;;;15.98;3.95;;;;;;;10.73;63.64;101598.69;10305790;28;20066;-68
2024/02/20 08:16:57;;;;;;;16.13;4.05;;;;;;;10.90;63.04;101596.06;10298267;28;20061;-68
2024/02/20 08:21:58;;;;;;;20.95;3.25;;;;;;;11.20;63.17;101601.34;10302202;28;20424;-68
2024/02/20 08:27:03;;;;;;;8.95;1.95;;;;;;;11.47;62.12;101598.63;10291197;28;20057;-66
2024/02/20 08:32:04;;;;;;;14.77;2.20;;;;;;;11.49;62.02;101593.94;10298420;28;20078;-66
2024/02/20 08:37:06;;;;;;;14.07;2.88;;;;;;;11.60;61.97;101608.19;10302234;28;20057;-66
2024/02/20 08:42:07;;;;;;;13.98;2.38;;;;;;;11.76;61.24;101599.44;10304545;28;20136;-66
2024/02/20 08:47:09;;;;;;;13.38;2.80;;;;;;;11.95;60.97;101603.84;10301405;28;20481;-66
2024/02/20 08:52:11;;;;;;;14.35;2.25;;;;;;;12.03;60.80;101612.03;10313732;28;20579;-66
2024/02/20 08:57:13;;;;;;;11.82;2.45;;;;;;;12.12;60.04;101608.38;10299021;28;20050;-66
2024/02/20 09:02:15;;;;;;;13.57;2.35;;;;;;;12.00;59.99;101613.16;10311525;28;20622;-65
2024/02/20 09:07:17;;;;;;;14.25;2.25;;;;;;;12.07;59.75;101608.84;10310346;28;20070;-65
2024/02/20 09:12:19;;;;;;;12.95;2.38;;;;;;;12.13;59.90;101609.25;10293831;28;20055;-65
2024/02/20 09:17:21;;;;;;;15.63;3.35;;;;;;;12.26;59.25;101613.25;10316620;28;20035;-64
2024/02/20 09:22:24;;;;;;;17.13;2.00;;;;;;;12.29;59.07;101626.41;10323878;28;20054;-65
2024/02/20 09:27:26;;;;;;;11.50;1.88;;;;;;;12.18;58.71;101625.78;10318426;28;20042;-65
2024/02/20 09:32:28;;;;;;;8.20;2.03;;;;;;;12.36;58.33;101629.34;10320225;28;20125;-65
2024/02/20 09:37:29;;;;;;;12.82;3.30;;;;;;;12.39;58.25;101628.16;10319151;28;20061;-68
2024/02/20 09:42:39;;;;;;;13.05;2.83;;;;;;;12.24;58.08;101638.66;10303683;28;20043;-69
2024/02/20 09:47:47;;;;;;;10.60;1.63;;;;;;;12.32;58.16;101644.09;10303670;28;20071;-68
2024/02/20 09:52:56;;;;;;;10.68;2.67;;;;;;;12.46;57.53;101645.41;10289311;28;20458;-69
2024/02/20 09:57:58;;;;;;;10.85;2.28;;;;;;;12.61;57.26;101643.00;10300033;28;20137;-68
2024/02/20 10:03:03;;;;;;;12.50;1.77;;;;;;;12.72;56.80;101642.75;10280162;28;20113;-66
2024/02/20 10:08:05;;;;;;;4.90;1.75;;;;;;;12.75;56.65;101636.19;10297752;28;20065;-68
2024/02/20 10:13:06;;;;;;;15.95;1.90;;;;;;;12.65;56.98;101639.81;10298297;28;20062;-68
2024/02/20 10:18:08;;;;;;;9.43;1.48;;;;;;;12.90;56.71;101629.19;10281062;28;20054;-68
2024/02/20 10:23:12;;;;;;;13.02;2.65;;;;;;;13.03;56.55;101635.00;10298712;28;20050;-67
2024/02/20 10:28:14;;;;;;;15.98;2.60;;;;;;;13.14;56.53;101635.75;10298057;28;20047;-66
2024/02/20 10:33:16;;;;;;;17.33;2.97;;;;;;;13.11;56.93;101636.88;10307200;28;20110;-67
2024/02/20 10:38:18;;;;;;;15.13;2.50;;;;;;;13.17;56.85;101627.28;10302839;28;20468;-68
2024/02/20 10:43:21;;;;;;;14.80;2.63;;;;;;;13.40;56.18;101643.81;10294962;28;20065;-66
2024/02/20 10:48:30;;;;;;;13.80;2.65;;;;;;;13.68;55.88;101634.47;10281007;28;20050;-63
2024/02/20 10:53:33;;;;;;;10.32;2.00;;;;;;;13.67;55.66;101623.81;10319641;28;20050;-63
2024/02/20 10:58:39;;;;;;;9.85;1.70;;;;;;;13.49;55.66;101619.38;10301326;28;20408;-64
2024/02/20 11:03:42;;;;;;;12.38;1.38;;;;;;;13.64;55.07;101622.28;10315030;28;20505;-64
2024/02/20 11:09:10;;;;;;;9.93;1.80;;;;;;;13.66;54.35;101609.47;10311360;28;20482;-64
2024/02/20 11:14:23;;;;;;;7.88;1.52;;;;;;;13.89;54.18;101608.81;10314987;28;20058;-64
2024/02/20 11:19:28;;;;;;;12.45;1.73;;;;;;;13.96;53.54;101599.03;10309201;28;20049;-64
2024/02/20 11:24:33;;;;;;;8.43;0.93;;;;;;;13.85;53.42;101605.59;10311307;28;20050;-64
2024/02/20 11:29:35;;;;;;;14.98;1.25;;;;;;;14.00;53.18;101605.81;10304860;28;20061;-65
2024/02/20 11:34:41;;;;;;;6.63;0.80;;;;;;;13.99;53.06;101603.25;10313482;28;20502;-66
2024/02/20 11:39:45;;;;;;;9.45;1.65;;;;;;;13.85;52.44;101596.66;10309745;28;20083;-65
2024/02/20 11:44:47;;;;;;;8.35;0.68;;;;;;;13.94;52.16;101586.69;10326336;28;20074;-65
2024/02/20 11:49:49;;;;;;;7.70;0.90;;;;;;;14.19;51.77;101572.16;10318811;28;20058;-73
2024/02/20 11:54:51;;;;;;;5.80;0.95;;;;;;;14.33;51.28;101558.97;10307869;28;20049;-74
2024/02/20 11:59:54;;;;;;;7.15;0.93;;;;;;;14.45;50.95;101563.88;10305915;28;20058;-72
2024/02/20 12:04:57;;;;;;;10.35;1.65;;;;;;;14.43;50.97;101552.34;10293770;28;20066;-71
2024/02/20 12:09:59;;;;;;;5.78;1.15;;;;;;;14.34;50.97;101555.28;10289477;28;20077;-71
2024/02/20 12:15:06;;;;;;;13.43;1.07;;;;;;;14.42;51.03;101547.97;10299837;28;20110;-66
2024/02/20 12:20:10;;;;;;;11.98;1.98;;;;;;;14.41;50.60;101546.28;10305718;28;20042;-67
2024/02/20 12:25:17;;;;;;;5.70;0.70;;;;;;;14.51;50.31;101532.56;10296392;28;20063;-67
2024/02/20 12:30:19;;;;;;;9.20;1.08;;;;;;;14.75;49.96;101523.56;10311027;28;20051;-65
2024/02/20 12:35:20;;;;;;;9.40;1.00;;;;;;;14.65;49.79;101515.66;10305943;28;20054;-65
2024/02/20 12:40:24;;;;;;;6.65;0.70;;;;;;;14.45;49.95;101517.00;10312137;28;20059;-66
2024/02/20 12:45:28;;;;;;;8.05;1.58;;;;;;;14.45;49.66;101515.19;10318483;28;20137;-66
2024/02/20 12:50:30;;;;;;;6.00;0.90;;;;;;;14.60;49.41;101515.31;10300218;28;21565;-66
2024/02/20 12:55:35;;;;;;;8.05;1.33;;;;;;;14.85;49.18;101505.25;10303654;28;20352;-69
2024/02/20 13:00:37;;;;;;;8.00;1.17;;;;;;;15.05;49.43;101499.41;10293181;28;20078;-68
2024/02/20 13:05:41;;;;;;;7.80;0.70;;;;;;;14.93;49.20;101492.69;10299253;28;20066;-68
2024/02/20 13:10:43;;;;;;;8.48;0.77;;;;;;;14.61;49.47;101494.50;10283801;28;20055;-70
2024/02/20 13:15:45;;;;;;;6.50;0.70;;;;;;;14.50;49.61;101484.06;10300611;28;20054;-71
2024/02/20 13:20:49;;;;;;;4.85;1.02;;;;;;;14.65;49.33;101477.78;10284536;28;20050;-71
2024/02/20 13:25:51;;;;;;;12.07;0.80;;;;;;;14.57;49.71;101474.22;10298537;28;20050;-71
2024/02/20 13:30:53;;;;;;;5.85;0.60;;;;;;;14.54;49.87;101459.16;10297349;28;20066;-70
2024/02/20 13:35:55;;;;;;;9.95;1.08;;;;;;;14.56;49.92;101456.28;10287453;28;20133;-70
2024/02/20 13:41:03;;;;;;;6.30;0.98;;;;;;;14.70;49.77;101457.44;10280952;28;20130;-70
2024/02/20 13:46:05;;;;;;;9.38;1.00;;;;;;;14.55;49.65;101447.31;10296557;28;20104;-71
2024/02/20 13:51:06;;;;;;;6.45;0.60;;;;;;;14.56;49.55;101451.75;10297627;28;20062;-70
2024/02/20 13:56:08;;;;;;;10.80;0.90;;;;;;;14.45;49.53;101452.94;10303312;28;20055;-70
2024/02/20 14:01:11;;;;;;;16.95;3.35;;;;;;;14.34;49.50;101458.72;10293538;28;20046;-70
2024/02/20 14:06:14;;;;;;;6.97;1.25;;;;;;;13.99;49.83;101468.94;10284599;28;20133;-71
2024/02/20 14:11:18;;;;;;;15.20;1.85;;;;;;;13.94;49.76;101465.03;10301586;28;20054;-71
2024/02/20 14:16:20;;;;;;;9.77;1.05;;;;;;;13.85;49.55;101467.75;10297530;28;20935;-72
2024/02/20 14:21:24;;;;;;;3.88;0.60;;;;;;;13.95;49.52;101462.19;10332388;23;20046;-88
2024/02/20 14:26:25;;;;;;;10.40;1.00;;;;;;;14.07;49.32;101458.09;10292140;23;20044;-91
2024/02/20 14:31:27;;;;;;;7.65;0.70;;;;;;;14.12;49.16;101449.50;10228245;29;20040;-88
2024/02/20 14:36:29;;;;;;;5.88;1.00;;;;;;;14.21;49.13;101428.66;10211693;29;20083;-87
2024/02/20 14:41:31;;;;;;;9.20;1.02;;;;;;;14.13;49.53;101415.16;10208635;29;20067;-88
2024/02/20 14:46:34;;;;;;;14.60;2.17;;;;;;;14.17;49.28;101405.69;10213078;29;20051;-88
2024/02/20 14:51:36;;;;;;;11.55;2.05;;;;;;;14.01;49.89;101412.81;10205799;29;20054;-89
2024/02/20 14:56:38;;;;;;;13.32;1.42;;;;;;;13.73;50.34;101408.84;10208100;29;20060;-87
2024/02/20 15:01:40;;;;;;;9.02;1.33;;;;;;;13.66;50.19;101403.25;10220916;29;20055;-80
2024/02/20 15:06:49;;;;;;;9.45;1.80;;;;;;;13.50;50.86;101409.50;10240581;29;20052;-81
2024/02/20 15:11:52;;;;;;;8.73;0.93;;;;;;;13.48;50.98;101387.22;10242104;29;20051;-81
2024/02/20 15:17:00;;;;;;;9.77;1.13;;;;;;;13.60;51.10;101385.03;10235726;28;20032;-91
2024/02/20 15:22:03;;;;;;;10.10;1.10;;;;;;;13.59;51.35;101395.00;10205678;29;20063;-80
2024/02/20 15:27:06;;;;;;;17.02;1.70;;;;;;;13.51;51.62;101392.31;10238956;29;20055;-81
2024/02/20 15:32:08;;;;;;;11.15;0.88;;;;;;;13.39;51.79;101385.53;10234958;29;20051;-80
2024/02/20 15:37:11;;;;;;;14.43;1.75;;;;;;;13.29;51.94;101370.34;10232982;29;20036;-80
2024/02/20 15:42:13;;;;;;;10.98;1.40;;;;;;;13.29;52.39;101391.97;10259329;29;20040;-80
2024/02/20 15:47:17;;;;;;;8.45;0.80;;;;;;;13.28;52.64;101398.31;10252003;29;20047;-80
2024/02/20 15:52:23;;;;;;;11.60;1.05;;;;;;;13.21;52.83;101391.06;10252497;29;20056;-82
2024/02/20 15:57:24;;;;;;;7.13;0.90;;;;;;;13.25;52.87;101374.38;10240909;28;20055;-79
2024/02/20 16:02:27;;;;;;;10.38;1.13;;;;;;;13.23;52.89;101364.72;10256379;28;20063;-79
2024/02/20 16:07:28;;;;;;;11.68;1.98;;;;;;;13.14;53.08;101388.19;10233888;29;20395;-80
2024/02/20 16:12:33;;;;;;;9.45;1.45;;;;;;;13.01;53.36;101380.59;10251691;29;20067;-81
2024/02/20 16:17:38;;;;;;;6.45;0.70;;;;;;;12.91;53.55;101371.78;10252575;29;20078;-80
2024/02/20 16:22:42;;;;;;;11.70;1.20;;;;;;;12.73;53.88;101388.13;10236231;29;20052;-80
2024/02/20 16:27:44;;;;;;;8.93;1.40;;;;;;;12.67;54.16;101378.81;10253338;29;20055;-80
2024/02/20 16:32:46;;;;;;;10.45;1.50;;;;;;;12.56;54.32;101375.56;10248815;29;20066;-81
2024/02/20 16:37:47;;;;;;;13.65;1.35;;;;;;;12.41;54.59;101396.94;10236945;29;20384;-81
2024/02/20 16:42:50;;;;;;;7.03;1.13;;;;;;;12.43;54.79;101400.31;10245675;29;20064;-80
2024/02/20 16:47:51;;;;;;;6.95;1.60;;;;;;;12.30;55.00;101408.84;10245937;29;20048;-80
2024/02/20 16:52:54;;;;;;;7.88;1.58;;;;;;;12.18;55.47;101399.34;10225719;29;20052;-81
2024/02/20 16:57:55;;;;;;;12.70;1.63;;;;;;;12.16;55.87;101404.06;10257615;28;20059;-83
2024/02/20 17:02:58;;;;;;;11.75;2.08;;;;;;;12.08;56.16;101403.03;10242466;29;20055;-83
2024/02/20 17:08:01;;;;;;;9.75;1.73;;;;;;;12.07;56.08;101404.03;10241992;28;20135;-83
2024/02/20 17:13:04;;;;;;;13.10;2.00;;;;;;;12.01;56.05;101414.59;10235888;28;20078;-83
2024/02/20 17:18:06;;;;;;;11.35;1.52;;;;;;;12.06;55.87;101415.78;10251922;28;20063;-83
2024/02/20 17:23:08;;;;;;;11.88;2.40;;;;;;;12.07;56.00;101413.97;10261892;28;20058;-84
2024/02/20 17:28:10;;;;;;;16.27;2.50;;;;;;;11.91;56.54;101414.72;10236842;28;20110;-83
2024/02/20 17:33:11;;;;;;;10.60;2.20;;;;;;;11.93;56.08;101415.41;10235224;29;20051;-83
2024/02/20 17:38:13;;;;;;;10.23;2.83;;;;;;;11.90;56.67;101403.06;10280102;23;20517;-59
2024/02/20 17:43:16;;;;;;;12.80;3.13;;;;;;;11.82;56.95;101407.53;10279551;28;20059;-59
2024/02/20 17:48:18;;;;;;;13.20;3.45;;;;;;;11.80;56.97;101409.53;10288323;28;20057;-61
2024/02/20 17:53:20;;;;;;;9.25;2.17;;;;;;;11.77;57.56;101408.03;10295264;28;20058;-61
2024/02/20 17:58:22;;;;;;;9.82;1.60;;;;;;;11.76;57.61;101409.00;10296509;28;20441;-60
2024/02/20 18:03:24;;;;;;;12.25;2.33;;;;;;;11.70;57.54;101398.88;10293402;28;20070;-62
2024/02/20 18:08:26;;;;;;;10.90;2.70;;;;;;;11.63;58.08;101395.97;10270245;28;20683;-61
2024/02/20 18:13:27;;;;;;;15.40;4.78;;;;;;;11.60;57.96;101404.34;10304984;28;20043;-62
2024/02/20 18:18:30;;;;;;;9.85;2.50;;;;;;;11.51;58.29;101400.75;10341011;22;20047;-89
2024/02/20 18:23:32;;;;;;;9.82;2.10;;;;;;;11.43;58.71;101400.69;11003344;23;20046;-66
2024/02/20 18:34:09;;;;;;;17.98;3.80;;;;;;;11.40;58.68;101394.78;10617985;22;20080;-63
2024/02/20 18:39:12;;;;;;;14.82;3.55;;;;;;;11.42;58.54;101392.78;10750388;22;20069;-65
2024/02/20 18:44:13;;;;;;;13.07;3.55;;;;;;;11.34;59.22;101385.47;10426613;23;20061;-91
2024/02/20 18:49:16;;;;;;;11.48;2.97;;;;;;;11.37;58.63;101389.69;10750205;23;20088;-88
2024/02/20 18:54:17;;;;;;;8.63;3.10;;;;;;;11.43;58.57;101392.63;10365098;28;20065;-90
2024/02/20 18:59:22;;;;;;;10.45;3.58;;;;;;;11.48;58.80;101387.59;10337505;28;20047;-95
2024/02/20 19:04:24;;;;;;;12.18;3.63;;;;;;;11.55;58.69;101386.97;10355873;28;20042;-89
2024/02/20 19:09:26;;;;;;;7.45;2.70;;;;;;;11.52;58.67;101391.66;10341155;28;20070;-89
2024/02/20 19:14:28;;;;;;;12.75;2.25;;;;;;;11.47;59.14;101388.63;10332374;28;20057;-89
2024/02/20 19:19:29;;;;;;;9.77;1.85;;;;;;;11.56;58.79;101381.44;10306104;28;20034;-89
2024/02/20 19:24:31;;;;;;;8.75;3.08;;;;;;;11.55;59.07;101384.28;10324551;28;20053;-89
2024/02/20 19:29:34;;;;;;;12.35;3.05;;;;;;;11.54;59.07;101398.75;10312206;28;20133;-89
2024/02/20 19:34:41;;;;;;;10.68;2.90;;;;;;;11.49;59.11;101383.03;10294939;28;20142;-88
2024/02/20 19:39:43;;;;;;;12.90;2.33;;;;;;;11.51;58.82;101384.59;10278743;28;20068;-89
2024/02/20 19:44:45;;;;;;;12.38;3.65;;;;;;;11.51;59.37;101389.13;10270979;28;20080;-84
2024/02/20 19:49:47;;;;;;;11.15;2.78;;;;;;;11.55;58.97;101379.72;10298144;28;20062;-85
2024/02/20 19:54:49;;;;;;;11.85;2.33;;;;;;;11.65;58.62;101380.50;10279042;28;20079;-84
2024/02/20 19:59:51;;;;;;;13.27;2.75;;;;;;;11.63;58.73;101369.03;10289259;28;20138;-87
2024/02/20 20:04:52;;;;;;;5.25;1.80;;;;;;;11.55;59.01;101376.19;10257345;28;20043;-84
2024/02/20 20:09:55;;;;;;;12.75;2.30;;;;;;;11.44;59.33;101372.75;10276979;28;20051;-86
2024/02/20 20:14:56;;;;;;;10.77;2.75;;;;;;;11.38;59.45;101369.84;10275114;28;20082;-86
2024/02/20 20:19:58;;;;;;;11.63;2.20;;;;;;;11.33;59.31;101370.31;10282668;28;20151;-86
2024/02/20 20:25:00;;;;;;;11.65;3.35;;;;;;;11.30;59.51;101365.25;10272440;28;20050;-86
2024/02/20 20:30:03;;;;;;;10.57;2.00;;;;;;;11.19;60.05;101366.31;10271026;28;20081;-86
2024/02/20 20:35:06;;;;;;;8.80;2.10;;;;;;;11.18;59.89;101366.50;10267543;28;20066;-86
2024/02/20 20:40:09;;;;;;;6.90;2.30;;;;;;;11.17;59.73;101362.94;10267236;28;20143;-85
2024/02/20 20:45:17;;;;;;;12.98;4.47;;;;;;;11.21;59.86;101361.63;10440396;28;20390;-60
2024/02/20 20:50:19;;;;;;;8.40;2.13;;;;;;;11.26;59.80;101362.03;10434501;28;20041;-61
2024/02/20 20:55:21;;;;;;;13.65;3.53;;;;;;;11.24;60.04;101364.03;10465426;28;20053;-60
2024/02/20 21:00:22;;;;;;;12.32;2.75;;;;;;;11.29;59.75;101361.72;10427755;28;20219;-60
2024/02/20 21:05:25;;;;;;;12.52;3.00;;;;;;;11.22;59.88;101359.81;10431290;28;20049;-60
2024/02/20 21:10:27;;;;;;;10.88;2.63;;;;;;;11.21;59.88;101358.09;10430135;28;20041;-60
2024/02/20 21:15:28;;;;;;;12.73;1.88;;;;;;;11.20;59.81;101351.88;10429483;28;20051;-60
2024/02/20 21:20:29;;;;;;;10.60;2.42;;;;;;;11.16;60.25;101341.56;10430872;28;20049;-66
2024/02/20 21:25:31;;;;;;;7.60;1.90;;;;;;;11.15;60.12;101337.19;10431387;28;20095;-65
2024/02/20 21:30:32;;;;;;;12.27;2.65;;;;;;;11.15;60.61;101335.34;10425396;28;20053;-63
2024/02/20 21:35:34;;;;;;;12.65;2.13;;;;;;;11.13;59.98;101340.03;10424026;28;20053;-63
2024/02/20 21:40:37;;;;;;;11.05;2.72;;;;;;;11.10;60.59;101334.97;10424424;28;20515;-62
2024/02/20 21:45:40;;;;;;;14.40;1.92;;;;;;;11.11;60.78;101337.50;10422343;28;20048;-62
2024/02/20 21:50:42;;;;;;;18.27;2.40;;;;;;;11.05;60.55;101340.81;10430623;28;20636;-63
2024/02/20 21:55:43;;;;;;;9.27;2.47;;;;;;;11.01;60.54;101331.34;10403439;28;20045;-62
2024/02/20 22:00:44;;;;;;;7.95;1.80;;;;;;;11.10;60.53;101329.59;10396726;28;20058;-63
2024/02/20 22:05:46;;;;;;;10.98;2.22;;;;;;;10.98;60.66;101322.75;10398240;28;20081;-63
2024/02/20 22:10:47;;;;;;;6.40;1.35;;;;;;;10.96;60.59;101313.97;10396198;28;20033;-62
2024/02/20 22:15:49;;;;;;;8.75;2.92;;;;;;;10.90;60.78;101312.78;10394044;28;20045;-65
2024/02/20 22:20:51;;;;;;;9.20;2.17;;;;;;;10.88;60.64;101299.47;10396561;28;20049;-61
2024/02/20 22:25:52;;;;;;;6.40;1.60;;;;;;;10.90;60.34;101308.22;10395623;28;20415;-65
2024/02/20 22:30:54;;;;;;;11.48;2.10;;;;;;;10.84;60.88;101306.16;10396924;28;20144;-60
2024/02/20 22:35:55;;;;;;;15.82;2.33;;;;;;;10.91;60.33;101309.91;10396222;28;20057;-60
2024/02/20 22:40:57;;;;;;;12.55;1.77;;;;;;;10.89;60.51;101298.47;10396010;28;20050;-61
2024/02/20 22:45:58;;;;;;;8.05;1.58;;;;;;;10.87;60.41;101300.47;10397449;28;20054;-60
2024/02/20 22:51:00;;;;;;;10.20;2.75;;;;;;;10.90;60.89;101304.72;10400652;28;20038;-60
2024/02/20 22:56:01;;;;;;;15.98;2.38;;;;;;;10.94;60.80;101305.22;10396818;28;20079;-60
2024/02/20 23:01:04;;;;;;;8.25;1.48;;;;;;;10.86;60.79;101300.59;10394435;28;20049;-60
2024/02/20 23:06:05;;;;;;;13.00;2.00;;;;;;;10.86;60.63;101290.72;10393583;28;20053;-60
2024/02/20 23:11:07;;;;;;;9.23;1.45;;;;;;;10.88;60.68;101296.78;10395260;28;20050;-60